createdAt,value
2023-06-30T00:01:34.771Z,62.31
2023-06-30T00:05:15.980Z,62.40
2023-06-30T00:08:11.081Z,62.55
2023-06-30T00:11:05.450Z,62.39
2023-06-30T00:14:22.988Z,62.46
2023-06-30T00:17:40.020Z,62.27
2023-06-30T00:22:19.197Z,62.15
2023-06-30T00:25:58.482Z,62.30
2023-06-30T00:29:37.685Z,62.16
2023-06-30T00:33:16.991Z,62.39
2023-06-30T00:36:56.142Z,62.14
2023-06-30T00:40:36.417Z,62.23
2023-06-30T00:44:15.686Z,62.28
2023-06-30T00:47:54.962Z,61.97
2023-06-30T00:51:34.226Z,61.97
2023-06-30T00:55:13.436Z,61.96
2023-06-30T00:58:43.176Z,61.75
2023-06-30T01:02:30.185Z,61.66
2023-06-30T01:05:55.922Z,61.77
2023-06-30T01:08:58.203Z,61.59
2023-06-30T01:11:52.913Z,61.66
2023-06-30T01:14:49.315Z,61.69
2023-06-30T01:17:48.174Z,61.79
2023-06-30T01:20:42.922Z,61.47
2023-06-30T01:23:35.742Z,61.51
2023-06-30T01:26:16.901Z,61.34
2023-06-30T01:29:11.970Z,61.16
2023-06-30T01:32:08.340Z,61.51
2023-06-30T01:35:03.572Z,61.43
2023-06-30T01:38:59.049Z,61.38
2023-06-30T01:43:37.387Z,60.95
2023-06-30T01:47:47.979Z,60.83
2023-06-30T01:51:34.661Z,60.77
2023-06-30T01:55:01.294Z,60.96
2023-06-30T01:58:18.281Z,60.96
2023-06-30T02:01:59.633Z,60.77
2023-06-30T02:05:41.921Z,60.61
2023-06-30T02:09:23.769Z,60.52
2023-06-30T02:12:41.711Z,60.48
2023-06-30T02:16:00.106Z,60.56
2023-06-30T02:18:56.166Z,60.35
2023-06-30T02:21:50.469Z,60.37
2023-06-30T02:24:44.713Z,60.20
2023-06-30T02:27:30.142Z,60.24
2023-06-30T02:30:23.846Z,60.29
2023-06-30T02:33:19.006Z,60.26
2023-06-30T02:36:13.776Z,60.16
2023-06-30T02:38:59.251Z,60.14
2023-06-30T02:41:53.438Z,60.36
2023-06-30T02:44:47.616Z,60.18
2023-06-30T02:47:41.764Z,60.16
2023-06-30T02:50:24.350Z,60.34
2023-06-30T02:53:18.716Z,59.89
2023-06-30T02:56:12.813Z,59.98
2023-06-30T02:59:06.986Z,59.93
2023-06-30T03:02:01.619Z,59.72
2023-06-30T03:04:44.883Z,60.02
2023-06-30T03:07:28.523Z,59.98
2023-06-30T03:10:07.058Z,60.08
2023-06-30T03:13:01.329Z,59.95
2023-06-30T03:15:55.884Z,59.96
2023-06-30T03:18:49.823Z,59.91
2023-06-30T03:21:43.684Z,61.70
2023-06-30T03:24:37.610Z,60.79
2023-06-30T03:27:14.356Z,60.21
2023-06-30T03:30:10.302Z,60.32
2023-06-30T03:33:04.445Z,60.22
2023-06-30T03:35:58.890Z,60.22
2023-06-30T03:38:53.127Z,60.30
2023-06-30T03:41:47.249Z,60.21
2023-06-30T03:44:31.578Z,60.29
2023-06-30T03:47:25.982Z,60.64
2023-06-30T03:50:20.341Z,60.35
2023-06-30T03:52:57.521Z,60.61
2023-06-30T03:55:37.130Z,60.60
2023-06-30T03:58:22.642Z,60.48
2023-06-30T04:01:16.773Z,60.63
2023-06-30T04:04:10.931Z,60.69
2023-06-30T04:07:05.500Z,60.82
2023-06-30T04:09:59.343Z,61.05
2023-06-30T04:12:38.788Z,61.39
2023-06-30T04:15:33.027Z,61.36
2023-06-30T04:18:12.402Z,61.50
2023-06-30T04:21:06.537Z,61.42
2023-06-30T04:24:00.439Z,61.66
2023-06-30T04:26:46.052Z,61.73
2023-06-30T04:29:24.693Z,61.88
2023-06-30T04:32:02.449Z,62.06
2023-06-30T04:34:59.403Z,62.02
2023-06-30T04:37:54.058Z,62.12
2023-06-30T04:40:33.598Z,62.17
2023-06-30T04:43:16.677Z,62.34
2023-06-30T04:46:10.505Z,62.42
2023-06-30T04:48:56.993Z,62.42
2023-06-30T04:51:34.231Z,62.55
2023-06-30T04:54:28.338Z,62.47
2023-06-30T04:57:22.526Z,62.57
2023-06-30T05:00:07.873Z,62.50
2023-06-30T05:02:52.244Z,62.35
2023-06-30T05:05:37.641Z,62.68
2023-06-30T05:08:31.523Z,62.62
2023-06-30T05:11:12.524Z,62.54
2023-06-30T05:13:49.533Z,62.98
2023-06-30T05:16:27.053Z,62.71
2023-06-30T05:19:06.252Z,62.91
2023-06-30T05:21:45.700Z,62.65
2023-06-30T05:24:25.323Z,62.61
2023-06-30T05:27:05.035Z,62.73
2023-06-30T05:29:42.171Z,62.56
2023-06-30T05:32:21.948Z,62.62
2023-06-30T05:35:16.172Z,62.63
2023-06-30T05:38:10.469Z,62.41
2023-06-30T05:40:48.319Z,62.38
2023-06-30T05:43:42.110Z,62.22
2023-06-30T05:46:21.326Z,61.88
2023-06-30T05:49:15.764Z,61.70
2023-06-30T05:51:55.360Z,61.59
2023-06-30T05:54:49.637Z,61.46
2023-06-30T05:57:43.892Z,61.91
2023-06-30T06:00:29.832Z,61.70
2023-06-30T06:03:07.306Z,61.51
2023-06-30T06:06:01.522Z,61.39
2023-06-30T06:08:55.705Z,61.50
2023-06-30T06:11:41.204Z,61.31
2023-06-30T06:14:35.687Z,61.57
2023-06-30T06:17:12.207Z,61.21
2023-06-30T06:19:58.111Z,61.44
2023-06-30T06:22:52.011Z,61.48
2023-06-30T06:25:31.096Z,61.42
2023-06-30T06:28:25.289Z,61.27
2023-06-30T06:31:08.519Z,61.63
2023-06-30T06:34:02.729Z,61.06
2023-06-30T06:36:47.129Z,60.99
2023-06-30T06:39:40.927Z,61.24
2023-06-30T06:42:17.968Z,61.10
2023-06-30T06:44:56.894Z,61.36
2023-06-30T06:48:21.974Z,61.04
2023-06-30T06:50:57.009Z,60.88
2023-06-30T06:53:33.924Z,60.83
2023-06-30T06:56:08.526Z,60.99
2023-06-30T06:58:44.259Z,60.94
2023-06-30T07:01:19.984Z,60.85
2023-06-30T07:03:53.551Z,60.68
2023-06-30T07:06:29.473Z,60.77
2023-06-30T07:09:03.007Z,60.60
2023-06-30T07:11:36.517Z,60.56
2023-06-30T07:14:10.077Z,60.63
2023-06-30T07:17:03.831Z,60.67
2023-06-30T07:19:57.754Z,60.06
2023-06-30T07:22:52.187Z,60.35
2023-06-30T07:25:46.632Z,61.14
2023-06-30T07:28:23.505Z,61.85
2023-06-30T07:31:18.222Z,61.32
2023-06-30T07:34:03.447Z,60.74
2023-06-30T07:36:57.343Z,60.66
2023-06-30T07:39:33.122Z,60.71
2023-06-30T07:42:27.094Z,60.58
2023-06-30T07:45:21.610Z,60.69
2023-06-30T07:48:15.497Z,60.84
2023-06-30T07:51:11.900Z,61.01
2023-06-30T07:54:05.611Z,60.84
2023-06-30T07:56:59.402Z,60.44
2023-06-30T07:59:53.238Z,60.72
2023-06-30T08:02:47.499Z,60.63
2023-06-30T08:05:41.733Z,60.57
2023-06-30T08:08:36.737Z,60.35
2023-06-30T08:11:31.815Z,60.29
2023-06-30T08:14:26.008Z,60.40
2023-06-30T08:17:21.807Z,60.25
2023-06-30T08:20:17.357Z,60.51
2023-06-30T08:22:56.665Z,60.55
2023-06-30T08:25:33.485Z,60.50
2023-06-30T08:28:27.236Z,60.47
2023-06-30T08:31:22.231Z,60.21
2023-06-30T08:34:06.711Z,60.28
2023-06-30T08:36:49.849Z,60.25
2023-06-30T08:39:26.034Z,60.21
2023-06-30T08:42:05.686Z,60.28
2023-06-30T08:44:51.201Z,60.52
2023-06-30T08:47:36.903Z,60.25
2023-06-30T08:50:31.466Z,60.35
2023-06-30T08:53:15.665Z,60.36
2023-06-30T08:56:11.920Z,60.22
2023-06-30T08:59:06.233Z,60.30
2023-06-30T09:02:01.208Z,60.01
2023-06-30T09:04:38.788Z,59.96
2023-06-30T09:07:40.977Z,59.86
2023-06-30T09:10:38.338Z,59.84
2023-06-30T09:13:32.770Z,59.87
2023-06-30T09:16:20.014Z,59.96
2023-06-30T09:19:14.988Z,59.70
2023-06-30T09:21:54.702Z,59.71
2023-06-30T09:24:31.452Z,59.37
2023-06-30T09:27:14.432Z,59.55
2023-06-30T09:30:10.164Z,59.59
2023-06-30T09:33:04.693Z,59.59
2023-06-30T09:36:01.473Z,59.29
2023-06-30T09:39:01.371Z,59.40
2023-06-30T09:41:56.370Z,59.46
2023-06-30T09:44:54.133Z,59.55
2023-06-30T09:47:54.296Z,59.40
2023-06-30T09:50:39.377Z,59.53
2023-06-30T09:53:39.052Z,59.53
2023-06-30T09:56:33.656Z,59.85
2023-06-30T09:59:29.707Z,60.03
2023-06-30T10:02:06.167Z,59.72
2023-06-30T10:05:00.135Z,59.61
2023-06-30T10:07:54.024Z,60.19
2023-06-30T10:10:28.153Z,62.60
2023-06-30T10:13:03.860Z,65.13
2023-06-30T10:15:39.006Z,66.03
2023-06-30T10:18:15.208Z,66.16
2023-06-30T10:20:51.616Z,66.27
2023-06-30T10:23:28.327Z,66.72
2023-06-30T10:26:03.863Z,65.54
2023-06-30T10:28:37.987Z,64.67
2023-06-30T10:31:11.969Z,63.48
2023-06-30T10:33:46.010Z,62.91
2023-06-30T10:36:40.547Z,62.19
2023-06-30T10:39:34.985Z,61.78
2023-06-30T10:42:37.762Z,61.63
2023-06-30T10:45:37.616Z,61.72
2023-06-30T10:48:32.014Z,61.32
2023-06-30T10:51:35.802Z,61.07
2023-06-30T10:54:31.317Z,61.01
2023-06-30T10:57:29.584Z,60.45
2023-06-30T11:00:30.631Z,59.74
2023-06-30T11:03:24.525Z,59.45
2023-06-30T11:06:25.134Z,59.46
2023-06-30T11:09:19.888Z,59.35
2023-06-30T11:12:16.532Z,59.13
2023-06-30T11:15:25.658Z,59.04
2023-06-30T11:18:23.606Z,59.23
2023-06-30T11:21:17.711Z,58.99
2023-06-30T11:24:19.651Z,58.86
2023-06-30T11:27:13.517Z,58.78
2023-06-30T11:30:08.924Z,58.68
2023-06-30T11:33:03.867Z,59.37
2023-06-30T11:36:00.599Z,59.13
2023-06-30T11:38:55.165Z,59.23
2023-06-30T11:41:49.209Z,59.73
2023-06-30T11:44:37.096Z,59.29
2023-06-30T11:47:31.455Z,59.83
2023-06-30T11:50:13.283Z,59.75
2023-06-30T11:53:07.168Z,59.85
2023-06-30T11:56:03.049Z,59.99
2023-06-30T11:58:38.493Z,59.88
2023-06-30T12:01:24.079Z,59.69
2023-06-30T12:04:39.310Z,59.78
2023-06-30T12:07:34.741Z,59.35
2023-06-30T12:10:21.222Z,59.04
2023-06-30T12:13:15.256Z,59.14
2023-06-30T12:16:10.020Z,58.97
2023-06-30T12:18:49.889Z,58.84
2023-06-30T12:21:57.773Z,59.20
2023-06-30T12:24:57.544Z,58.94
2023-06-30T12:27:52.581Z,58.94
2023-06-30T12:30:49.032Z,58.68
2023-06-30T12:33:25.885Z,58.82
2023-06-30T12:36:05.961Z,58.68
2023-06-30T12:38:45.203Z,58.54
2023-06-30T12:41:34.325Z,58.51
2023-06-30T12:44:28.409Z,58.16
2023-06-30T12:47:22.323Z,58.35
2023-06-30T12:50:06.010Z,58.22
2023-06-30T12:53:03.086Z,58.27
2023-06-30T12:55:42.225Z,58.09
2023-06-30T12:58:36.058Z,57.59
2023-06-30T13:01:30.361Z,57.55
2023-06-30T13:04:06.853Z,57.79
2023-06-30T13:07:01.258Z,57.97
2023-06-30T13:09:55.449Z,57.81
2023-06-30T13:12:49.193Z,57.87
2023-06-30T13:15:43.396Z,57.82
2023-06-30T13:18:37.356Z,58.49
2023-06-30T13:21:21.590Z,58.15
2023-06-30T13:23:58.448Z,57.97
2023-06-30T13:26:36.147Z,57.71
2023-06-30T13:29:13.635Z,57.71
2023-06-30T13:32:08.106Z,57.53
2023-06-30T13:34:48.583Z,57.46
2023-06-30T13:37:42.770Z,57.36
2023-06-30T13:40:36.501Z,57.53
2023-06-30T13:43:10.218Z,57.58
2023-06-30T13:46:04.345Z,57.75
2023-06-30T13:48:58.430Z,57.82
2023-06-30T13:51:37.634Z,58.31
2023-06-30T13:54:21.733Z,58.18
2023-06-30T13:57:15.580Z,58.41
2023-06-30T13:59:55.030Z,58.51
2023-06-30T14:02:37.196Z,58.64
2023-06-30T14:05:20.032Z,58.05
2023-06-30T14:08:13.824Z,58.41
2023-06-30T14:11:00.026Z,58.10
2023-06-30T14:13:55.461Z,58.14
2023-06-30T14:16:49.485Z,58.03
2023-06-30T14:19:34.794Z,58.02
2023-06-30T14:22:13.717Z,57.88
2023-06-30T14:24:50.441Z,57.88
2023-06-30T14:27:24.090Z,57.83
2023-06-30T14:30:03.761Z,57.84
2023-06-30T14:32:58.219Z,58.11
2023-06-30T14:35:52.055Z,57.92
2023-06-30T14:38:35.119Z,57.98
2023-06-30T14:41:28.806Z,58.41
2023-06-30T14:44:23.075Z,58.53
2023-06-30T14:47:01.213Z,58.52
2023-06-30T14:49:37.959Z,58.78
2023-06-30T14:52:17.084Z,58.89
2023-06-30T14:54:56.421Z,59.40
2023-06-30T14:57:51.192Z,59.02
2023-06-30T15:00:44.992Z,59.15
2023-06-30T15:03:39.378Z,58.94
2023-06-30T15:06:24.416Z,59.04
2023-06-30T15:09:08.787Z,59.06
2023-06-30T15:11:59.265Z,59.15
2023-06-30T15:14:44.568Z,58.98
2023-06-30T15:17:38.435Z,58.81
2023-06-30T15:20:21.259Z,58.80
2023-06-30T15:23:15.032Z,58.95
2023-06-30T15:26:08.959Z,58.90
2023-06-30T15:28:45.506Z,59.09
2023-06-30T15:31:40.765Z,59.05
2023-06-30T15:34:17.843Z,59.11
2023-06-30T15:37:11.696Z,59.05
2023-06-30T15:40:06.054Z,59.08
2023-06-30T15:42:48.305Z,59.03
2023-06-30T15:45:27.517Z,59.13
2023-06-30T15:48:21.644Z,59.40
2023-06-30T15:51:16.449Z,59.49
2023-06-30T15:53:55.567Z,59.74
2023-06-30T15:56:35.217Z,59.67
2023-06-30T15:59:11.945Z,59.54
2023-06-30T16:01:56.074Z,59.79
2023-06-30T16:04:39.376Z,59.53
2023-06-30T16:07:18.647Z,59.52
2023-06-30T16:10:13.965Z,59.38
2023-06-30T16:12:51.112Z,59.34
2023-06-30T16:15:45.699Z,59.55
2023-06-30T16:18:30.842Z,59.44
2023-06-30T16:21:15.120Z,59.56
2023-06-30T16:23:58.251Z,59.48
2023-06-30T16:26:37.313Z,59.74
2023-06-30T16:29:38.205Z,59.52
2023-06-30T16:32:22.904Z,59.78
2023-06-30T16:35:17.177Z,59.69
2023-06-30T16:38:02.491Z,59.86
2023-06-30T16:40:38.983Z,59.76
2023-06-30T16:43:33.137Z,59.88
2023-06-30T16:46:16.020Z,60.18
2023-06-30T16:49:09.773Z,60.37
2023-06-30T16:51:53.675Z,60.35
2023-06-30T16:54:32.536Z,60.49
2023-06-30T16:57:15.253Z,60.28
2023-06-30T17:00:11.854Z,60.07
2023-06-30T17:02:56.678Z,60.41
2023-06-30T17:05:36.367Z,60.26
2023-06-30T17:08:21.198Z,60.34
2023-06-30T17:11:15.293Z,60.11
2023-06-30T17:13:54.481Z,59.98
2023-06-30T17:16:31.311Z,60.21
2023-06-30T17:19:10.289Z,60.78
2023-06-30T17:22:04.479Z,60.73
2023-06-30T17:24:48.937Z,60.49
2023-06-30T17:27:42.765Z,60.13
2023-06-30T17:30:36.703Z,60.48
2023-06-30T17:33:21.823Z,60.81
2023-06-30T17:36:07.506Z,60.66
2023-06-30T17:39:02.922Z,60.75
2023-06-30T17:41:41.933Z,60.85
2023-06-30T17:44:37.713Z,60.41
2023-06-30T17:47:22.806Z,60.66
2023-06-30T17:50:18.346Z,60.68
2023-06-30T17:52:57.938Z,60.26
2023-06-30T17:55:37.054Z,60.20
2023-06-30T17:58:14.393Z,60.22
2023-06-30T18:00:50.730Z,60.21
2023-06-30T18:03:35.673Z,60.43
2023-06-30T18:06:30.377Z,60.75
2023-06-30T18:09:09.858Z,60.72
2023-06-30T18:11:45.773Z,60.92
2023-06-30T18:14:40.651Z,60.98
2023-06-30T18:17:25.032Z,61.00
2023-06-30T18:20:19.091Z,60.89
2023-06-30T18:23:12.886Z,60.90
2023-06-30T18:26:07.454Z,61.43
2023-06-30T18:29:01.655Z,61.55
2023-06-30T18:31:59.175Z,61.37
2023-06-30T18:34:54.403Z,61.36
2023-06-30T18:37:38.065Z,61.24
2023-06-30T18:40:31.970Z,61.18
2023-06-30T18:43:16.217Z,61.67
2023-06-30T18:46:00.373Z,61.61
2023-06-30T18:48:38.170Z,61.85
2023-06-30T18:51:21.519Z,61.81
2023-06-30T18:54:15.639Z,61.82
2023-06-30T18:56:58.889Z,62.04
2023-06-30T18:59:44.391Z,61.99
2023-06-30T19:02:32.266Z,62.16
2023-06-30T19:05:12.572Z,62.50
2023-06-30T19:07:52.003Z,62.97
2023-06-30T19:10:47.231Z,62.54
2023-06-30T19:13:24.411Z,62.22
2023-06-30T19:16:18.348Z,62.06
2023-06-30T19:19:12.582Z,61.99
2023-06-30T19:22:07.350Z,61.87
2023-06-30T19:25:01.225Z,62.05
2023-06-30T19:27:40.831Z,61.75
2023-06-30T19:30:28.221Z,61.81
2023-06-30T19:33:29.143Z,61.44
2023-06-30T19:36:14.391Z,61.22
2023-06-30T19:39:08.727Z,61.26
2023-06-30T19:41:46.363Z,61.23
2023-06-30T19:44:40.952Z,61.37
2023-06-30T19:47:35.505Z,60.40
2023-06-30T19:50:16.241Z,59.92
2023-06-30T19:53:01.688Z,59.91
2023-06-30T19:55:46.190Z,59.73
2023-06-30T19:58:29.890Z,60.06
2023-06-30T20:01:08.982Z,60.00
2023-06-30T20:03:51.476Z,59.92
2023-06-30T20:06:45.806Z,59.80
2023-06-30T20:09:39.856Z,59.97
2023-06-30T20:12:33.709Z,59.92
2023-06-30T20:15:14.346Z,60.44
2023-06-30T20:18:10.084Z,60.36
2023-06-30T20:21:05.431Z,60.43
2023-06-30T20:23:42.513Z,60.25
2023-06-30T20:26:26.894Z,60.24
2023-06-30T20:29:06.279Z,60.30
2023-06-30T20:31:46.024Z,60.21
2023-06-30T20:34:41.724Z,60.28
2023-06-30T20:37:21.095Z,60.45
2023-06-30T20:40:16.218Z,60.41
2023-06-30T20:42:59.271Z,60.34
2023-06-30T20:45:49.563Z,60.41
2023-06-30T20:48:34.950Z,60.65
2023-06-30T20:51:14.085Z,60.88
2023-06-30T20:53:53.730Z,61.01
2023-06-30T20:56:34.013Z,60.79
2023-06-30T20:59:10.954Z,60.91
2023-06-30T21:01:51.012Z,61.48
2023-06-30T21:04:28.019Z,61.24
2023-06-30T21:07:05.576Z,61.44
2023-06-30T21:09:59.433Z,61.38
2023-06-30T21:12:43.475Z,61.52
2023-06-30T21:15:37.765Z,61.88
2023-06-30T21:18:22.623Z,61.84
2023-06-30T21:21:06.176Z,61.62
2023-06-30T21:23:48.982Z,61.59
2023-06-30T21:26:28.079Z,61.53
2023-06-30T21:29:04.983Z,61.61
2023-06-30T21:31:49.129Z,61.52
2023-06-30T21:34:26.132Z,61.40
2023-06-30T21:37:20.710Z,61.41
2023-06-30T21:40:02.244Z,61.53
2023-06-30T21:42:57.472Z,61.51
2023-06-30T21:45:51.896Z,61.50
2023-06-30T21:48:37.297Z,61.55
2023-06-30T21:51:16.554Z,61.60
2023-06-30T21:54:08.044Z,61.70
2023-06-30T21:57:01.942Z,61.66
2023-06-30T21:59:56.331Z,61.83
2023-06-30T22:02:48.078Z,61.72
2023-06-30T22:05:42.271Z,61.64
2023-06-30T22:08:38.893Z,61.81
2023-06-30T22:11:32.860Z,61.64
2023-06-30T22:14:27.656Z,61.97
2023-06-30T22:17:22.127Z,61.78
2023-06-30T22:20:03.127Z,61.77
2023-06-30T22:22:46.291Z,61.85
2023-06-30T22:25:40.767Z,62.16
2023-06-30T22:28:14.499Z,62.15
2023-06-30T22:31:08.450Z,61.87
2023-06-30T22:33:53.394Z,62.21
2023-06-30T22:36:44.888Z,62.20
2023-06-30T22:40:04.882Z,62.34
2023-06-30T22:42:58.441Z,62.45
2023-06-30T22:45:52.491Z,62.32
2023-06-30T22:48:46.434Z,62.69
2023-06-30T22:51:29.496Z,62.73
2023-06-30T22:54:23.810Z,62.93
2023-06-30T22:57:18.022Z,63.14
2023-06-30T22:59:55.113Z,62.93
2023-06-30T23:02:49.079Z,62.83
2023-06-30T23:05:43.122Z,62.79
2023-06-30T23:08:36.985Z,62.94
2023-06-30T23:11:30.943Z,63.11
2023-06-30T23:14:25.335Z,62.90
2023-06-30T23:17:25.825Z,62.82
2023-06-30T23:20:03.846Z,63.11
2023-06-30T23:22:50.948Z,63.15
2023-06-30T23:25:45.522Z,63.30
2023-06-30T23:28:30.124Z,63.28
2023-06-30T23:31:22.553Z,63.54
2023-06-30T23:34:03.414Z,63.50
2023-06-30T23:36:57.527Z,63.53
2023-06-30T23:39:37.969Z,63.56
2023-06-30T23:42:31.777Z,63.60
2023-06-30T23:45:16.107Z,63.59
2023-06-30T23:47:53.857Z,63.48
2023-06-30T23:50:34.835Z,63.63
2023-06-30T23:53:17.582Z,63.81
2023-06-30T23:56:01.884Z,63.99
2023-06-30T23:58:58.030Z,64.09
